Time;durP1;ratioP1;P1;durP2;ratioP2;P2;SDS_P1;SDS_P2;PMS_P1;PMS_P2;Temp;Humidity;BMP_temperature;BMP_pressure;BME280_temperature;BME280_humidity;BME280_pressure;Samples;Min_cycle;Max_cycle;Signal;HPM_P1;HPM_P2
2023/03/02 00:01:56;;;;;;;27.83;17.35;;;;;;;7.39;67.08;101959.31;5075111;28;20383;-79
2023/03/02 00:04:29;;;;;;;26.38;16.67;;;;;;;7.30;67.68;101957.38;5074197;28;20759;-79
2023/03/02 00:06:58;;;;;;;25.50;16.40;;;;;;;7.30;67.65;101962.66;5074216;28;20848;-79
2023/03/02 00:09:24;;;;;;;25.75;16.67;;;;;;;7.38;67.41;101958.47;5073339;28;20403;-79
2023/03/02 00:11:50;;;;;;;22.47;15.43;;;;;;;7.38;67.75;101960.25;5074987;28;20412;-78
2023/03/02 00:14:15;;;;;;;25.70;16.15;;;;;;;7.27;67.52;101954.03;5074199;28;20386;-79
2023/03/02 00:16:41;;;;;;;28.73;17.00;;;;;;;7.35;67.96;101945.50;5073950;28;20383;-79
2023/03/02 00:19:06;;;;;;;22.87;15.20;;;;;;;7.30;68.09;101952.94;5074089;28;20393;-79
2023/03/02 00:21:32;;;;;;;23.75;15.02;;;;;;;7.23;68.04;101942.00;5074018;28;20398;-79
2023/03/02 00:23:57;;;;;;;23.35;15.85;;;;;;;7.30;67.93;101939.75;5072673;28;20376;-78
2023/03/02 00:26:23;;;;;;;21.67;15.27;;;;;;;7.23;68.10;101942.00;5073870;28;20375;-81
2023/03/02 00:28:48;;;;;;;22.73;15.23;;;;;;;7.25;68.17;101939.25;5073285;28;20403;-79
2023/03/02 00:31:14;;;;;;;22.42;14.75;;;;;;;7.30;67.98;101931.00;5073599;28;20383;-79
2023/03/02 00:33:40;;;;;;;20.50;14.25;;;;;;;7.24;68.17;101938.44;5073881;28;20405;-80
2023/03/02 00:36:13;;;;;;;22.25;14.90;;;;;;;7.33;68.03;101941.28;5072073;28;20731;-79
2023/03/02 00:38:38;;;;;;;22.00;14.48;;;;;;;7.33;68.00;101930.75;5071958;28;20382;-79
2023/03/02 00:41:04;;;;;;;21.13;15.15;;;;;;;7.25;67.89;101933.97;5073285;28;20473;-79
2023/03/02 00:43:29;;;;;;;21.17;14.23;;;;;;;7.33;67.98;101930.75;5073279;28;20457;-79
2023/03/02 00:45:54;;;;;;;22.50;14.50;;;;;;;7.28;68.17;101929.31;5073503;28;20410;-79
2023/03/02 00:48:20;;;;;;;20.40;14.95;;;;;;;7.31;68.20;101935.31;5073292;28;20862;-79
2023/03/02 00:50:46;;;;;;;22.47;14.80;;;;;;;7.32;67.86;101921.16;5072909;28;20938;-78
2023/03/02 00:53:11;;;;;;;22.63;14.70;;;;;;;7.09;68.45;101923.75;5073919;28;20906;-78
2023/03/02 00:55:37;;;;;;;26.03;15.00;;;;;;;7.16;68.71;101921.50;5073447;28;20420;-79
2023/03/02 00:58:03;;;;;;;23.65;15.50;;;;;;;7.04;68.82;101916.22;5073740;28;20450;-79
2023/03/02 01:00:30;;;;;;;23.05;15.90;;;;;;;7.04;69.24;101918.00;5073631;28;20432;-78
2023/03/02 01:02:56;;;;;;;23.25;15.52;;;;;;;7.08;68.85;101919.47;5073370;28;20382;-79
2023/03/02 01:05:21;;;;;;;22.37;15.17;;;;;;;7.06;69.15;101911.66;5071933;28;20371;-78
2023/03/02 01:07:47;;;;;;;24.70;15.83;;;;;;;7.03;69.23;101913.69;5073330;28;20461;-78
2023/03/02 01:10:13;;;;;;;21.97;15.37;;;;;;;7.22;68.66;101913.09;5072950;28;20511;-79
2023/03/02 01:12:39;;;;;;;24.70;16.17;;;;;;;7.10;69.06;101912.28;5075495;28;20374;-78
2023/03/02 01:15:07;;;;;;;23.58;15.35;;;;;;;7.19;68.65;101897.53;5076808;28;20403;-77
2023/03/02 01:17:33;;;;;;;23.23;14.95;;;;;;;6.97;69.16;101895.69;5076550;28;20851;-78
2023/03/02 01:19:58;;;;;;;25.23;15.23;;;;;;;7.00;69.05;101900.75;5076572;28;20367;-79
2023/03/02 01:22:25;;;;;;;23.58;15.38;;;;;;;7.14;68.87;101905.81;5075465;28;20882;-78
2023/03/02 01:24:52;;;;;;;23.15;14.75;;;;;;;6.99;69.02;101901.72;5075181;28;20448;-78
2023/03/02 01:27:18;;;;;;;20.15;14.52;;;;;;;6.89;69.56;101889.22;5075135;28;20436;-78
2023/03/02 01:29:44;;;;;;;20.98;14.50;;;;;;;6.91;69.12;101901.44;5077388;28;20775;-79
2023/03/02 01:32:10;;;;;;;22.35;15.02;;;;;;;6.74;69.75;101886.94;5075700;28;20469;-78
2023/03/02 01:34:38;;;;;;;22.95;15.70;;;;;;;6.88;69.16;101890.19;5076907;28;20383;-79
2023/03/02 01:37:04;;;;;;;21.00;14.32;;;;;;;6.90;69.27;101887.44;5076584;28;20367;-79
2023/03/02 01:39:29;;;;;;;21.03;14.80;;;;;;;7.04;69.22;101892.50;5077187;28;20439;-79
2023/03/02 01:41:55;;;;;;;22.03;14.20;;;;;;;7.08;68.52;101886.03;5077160;28;20375;-78
2023/03/02 01:44:38;;;;;;;21.23;13.82;;;;;;;6.88;69.27;101889.34;5076719;28;20421;-78
2023/03/02 01:47:20;;;;;;;22.25;14.13;;;;;;;6.75;69.67;101883.31;5076460;28;20763;-78
2023/03/02 01:49:55;;;;;;;21.67;15.30;;;;;;;6.88;69.26;101898.09;5073943;28;20402;-78
2023/03/02 01:52:22;;;;;;;19.92;14.65;;;;;;;6.50;70.19;101886.00;5073773;28;20375;-78
2023/03/02 01:54:50;;;;;;;22.85;14.10;;;;;;;6.70;70.03;101891.59;5074844;28;20375;-78
2023/03/02 01:57:22;;;;;;;23.17;15.52;;;;;;;6.64;70.09;101874.41;5074630;28;20375;-78
2023/03/02 01:59:52;;;;;;;22.30;15.02;;;;;;;6.73;69.82;101878.16;5074414;28;20379;-78
2023/03/02 02:02:18;;;;;;;21.05;13.45;;;;;;;6.71;69.76;101882.72;5074379;28;20380;-78
2023/03/02 02:04:46;;;;;;;21.08;14.13;;;;;;;6.58;69.68;101882.81;5075212;28;20810;-77
2023/03/02 02:07:12;;;;;;;23.47;14.83;;;;;;;6.70;69.63;101894.22;5076439;28;20465;-78
2023/03/02 02:09:44;;;;;;;22.47;14.00;;;;;;;6.51;70.09;101892.94;5076275;28;20485;-78
2023/03/02 02:12:16;;;;;;;20.67;13.77;;;;;;;6.41;70.48;101891.97;5076372;28;20372;-78
2023/03/02 02:14:42;;;;;;;22.77;13.98;;;;;;;6.35;70.77;101891.56;5075583;28;20371;-78
2023/03/02 02:17:09;;;;;;;19.93;14.07;;;;;;;6.47;70.26;101888.88;5075478;28;20378;-78
2023/03/02 02:19:43;;;;;;;21.60;14.15;;;;;;;6.45;70.05;101892.59;5076084;28;20378;-79
2023/03/02 02:22:10;;;;;;;21.60;14.68;;;;;;;6.32;70.71;101892.66;5075669;28;20394;-79
2023/03/02 02:24:54;;;;;;;20.85;13.95;;;;;;;6.42;70.50;101880.47;5073232;28;20394;-78
2023/03/02 02:27:19;;;;;;;20.77;14.10;;;;;;;6.47;70.04;101872.22;5075353;28;20701;-78
2023/03/02 02:29:48;;;;;;;21.25;13.90;;;;;;;6.35;70.45;101883.69;5075568;28;20460;-78
2023/03/02 02:32:16;;;;;;;20.38;13.82;;;;;;;6.11;71.02;101884.53;5074515;28;20390;-78
2023/03/02 02:34:58;;;;;;;20.90;13.98;;;;;;;6.13;71.31;101885.25;5075150;28;20367;-79
2023/03/02 02:37:32;;;;;;;20.25;14.15;;;;;;;6.35;70.58;101895.03;5074389;28;20383;-78
2023/03/02 02:40:00;;;;;;;22.30;14.63;;;;;;;6.48;70.03;101887.06;5075192;28;20393;-78
2023/03/02 02:42:36;;;;;;;22.42;14.15;;;;;;;6.34;70.46;101887.25;5075475;28;20371;-78
2023/03/02 02:45:06;;;;;;;22.05;14.05;;;;;;;6.43;70.19;101879.53;5074725;28;20381;-78
2023/03/02 02:47:32;;;;;;;23.42;14.57;;;;;;;6.42;70.49;101884.91;5074967;28;20468;-79
2023/03/02 02:49:58;;;;;;;21.08;13.50;;;;;;;6.30;70.12;101879.59;5074720;28;20410;-78
2023/03/02 02:52:27;;;;;;;21.40;14.27;;;;;;;6.44;69.99;101891.72;5075025;28;20797;-79
2023/03/02 02:54:55;;;;;;;23.02;13.90;;;;;;;6.29;69.90;101887.59;5075633;28;20390;-78
2023/03/02 02:57:24;;;;;;;24.08;15.13;;;;;;;6.18;70.86;101877.03;5077021;28;20459;-79
2023/03/02 02:59:57;;;;;;;23.20;14.38;;;;;;;6.17;70.80;101886.69;5075072;28;20371;-79
2023/03/02 03:02:25;;;;;;;21.95;13.82;;;;;;;6.14;71.14;101886.94;5075415;28;20375;-79
2023/03/02 03:05:01;;;;;;;24.65;14.85;;;;;;;6.16;70.92;101885.03;5077312;28;20916;-80
2023/03/02 03:07:27;;;;;;;24.35;14.90;;;;;;;6.21;70.41;101875.00;5076458;28;20401;-79
2023/03/02 03:10:38;;;;;;;23.50;15.23;;;;;;;6.30;70.30;101869.06;5074842;28;20497;-79
2023/03/02 03:13:09;;;;;;;23.40;14.70;;;;;;;6.21;70.34;101876.78;5075407;28;20444;-79
2023/03/02 03:15:35;;;;;;;23.65;14.65;;;;;;;6.17;71.11;101885.88;5075625;28;20436;-78
2023/03/02 03:18:01;;;;;;;24.50;15.33;;;;;;;6.33;70.67;101878.53;5075517;28;20423;-79
2023/03/02 03:20:27;;;;;;;23.50;15.02;;;;;;;6.12;70.42;101876.53;5074966;28;20378;-79
2023/03/02 03:22:52;;;;;;;26.52;18.05;;;;;;;6.22;70.79;101886.38;5075867;28;20375;-79
2023/03/02 03:25:20;;;;;;;27.43;16.27;;;;;;;6.28;70.35;101878.00;5075102;28;20468;-79
2023/03/02 03:27:46;;;;;;;25.80;16.48;;;;;;;6.36;70.26;101880.94;5074304;28;20379;-80
2023/03/02 03:30:14;;;;;;;25.95;15.65;;;;;;;6.40;69.77;101884.19;5073984;28;20410;-79
2023/03/02 03:32:40;;;;;;;24.65;15.52;;;;;;;6.41;69.57;101875.31;5073940;28;20413;-78
2023/03/02 03:35:09;;;;;;;26.92;16.23;;;;;;;6.37;70.07;101884.41;5074978;28;20367;-79
2023/03/02 03:37:37;;;;;;;27.15;16.33;;;;;;;6.35;69.94;101878.41;5074835;28;20387;-79
2023/03/02 03:40:04;;;;;;;22.90;15.60;;;;;;;6.53;69.67;101882.31;5074957;28;20705;-79
2023/03/02 03:42:30;;;;;;;24.95;15.20;;;;;;;6.44;69.60;101873.28;5074853;28;20712;-78
2023/03/02 03:44:55;;;;;;;24.30;15.43;;;;;;;6.26;70.08;101896.56;5074384;28;20375;-78
2023/03/02 03:47:21;;;;;;;24.97;15.10;;;;;;;6.40;70.00;101885.00;5073224;28;20890;-78
2023/03/02 03:49:46;;;;;;;24.60;15.75;;;;;;;6.38;69.75;101884.28;5065764;28;20411;-79
2023/03/02 03:52:12;;;;;;;25.07;16.03;;;;;;;6.42;69.55;101887.53;5062265;28;20377;-77
2023/03/02 03:54:37;;;;;;;24.53;15.50;;;;;;;6.23;70.02;101886.28;5062526;28;20446;-78
2023/03/02 03:57:03;;;;;;;25.70;16.17;;;;;;;6.29;70.26;101891.06;5065282;28;20381;-77
2023/03/02 03:59:28;;;;;;;25.90;16.60;;;;;;;6.48;69.63;101887.94;5063101;28;20377;-78
2023/03/02 04:01:57;;;;;;;26.60;16.10;;;;;;;6.32;69.99;101890.03;5062355;28;20390;-78
2023/03/02 04:04:34;;;;;;;27.10;17.40;;;;;;;6.39;69.89;101893.03;5061439;28;20469;-79
2023/03/02 04:07:00;;;;;;;27.13;16.65;;;;;;;6.46;69.55;101891.63;5060707;28;20899;-78
2023/03/02 04:09:25;;;;;;;26.20;17.93;;;;;;;6.58;68.61;101887.25;5058690;28;20482;-78
2023/03/02 04:11:53;;;;;;;29.80;18.13;;;;;;;6.52;69.18;101896.44;5063548;28;20371;-78
2023/03/02 04:14:20;;;;;;;28.33;17.05;;;;;;;6.32;70.13;101895.28;5063298;28;20374;-78
2023/03/02 04:16:48;;;;;;;27.92;16.98;;;;;;;6.50;69.41;101890.44;5061969;28;20380;-82
2023/03/02 04:19:14;;;;;;;27.50;16.37;;;;;;;6.28;70.05;101897.31;5062016;28;20893;-78
2023/03/02 04:21:42;;;;;;;24.50;15.80;;;;;;;6.23;69.86;101882.78;5063336;28;20482;-78
2023/03/02 04:24:08;;;;;;;26.95;15.27;;;;;;;6.35;69.76;101884.50;5062330;28;20398;-79
2023/03/02 04:26:36;;;;;;;24.55;14.43;;;;;;;6.20;69.64;101883.03;5062440;28;20377;-79
2023/03/02 04:29:03;;;;;;;27.17;15.68;;;;;;;6.27;69.81;101892.16;5059833;28;20451;-78
2023/03/02 04:31:30;;;;;;;25.77;15.40;;;;;;;6.19;69.60;101897.97;5066715;28;20386;-78
2023/03/02 04:33:56;;;;;;;25.63;15.02;;;;;;;6.25;69.14;101894.88;5063217;28;20764;-80
2023/03/02 04:36:22;;;;;;;27.33;15.40;;;;;;;6.20;69.60;101899.66;5061741;28;20775;-79
2023/03/02 04:38:47;;;;;;;27.80;16.03;;;;;;;6.24;69.41;101901.09;5062612;28;20906;-79
2023/03/02 04:41:13;;;;;;;28.50;15.47;;;;;;;6.19;69.05;101894.50;5063040;28;20378;-79
2023/03/02 04:43:38;;;;;;;27.58;16.30;;;;;;;6.27;68.94;101886.88;5062247;28;20406;-78
2023/03/02 04:46:04;;;;;;;25.70;15.32;;;;;;;6.10;69.56;101896.00;5064385;28;20414;-78
2023/03/02 04:48:29;;;;;;;30.83;18.17;;;;;;;6.18;69.14;101906.00;5059958;28;20488;-78
2023/03/02 04:50:55;;;;;;;26.03;15.63;;;;;;;6.24;69.08;101905.53;5060593;28;20780;-76
2023/03/02 04:53:20;;;;;;;30.03;16.83;;;;;;;6.32;68.91;101892.66;5060091;28;20448;-78
2023/03/02 04:55:46;;;;;;;28.73;16.63;;;;;;;6.28;68.87;101899.94;5064124;28;20408;-78
2023/03/02 04:58:12;;;;;;;28.30;17.60;;;;;;;6.22;68.85;101886.38;5062242;28;20395;-77
2023/03/02 05:00:37;;;;;;;25.55;15.85;;;;;;;6.25;68.57;101913.31;5068342;28;20387;-77
2023/03/02 05:03:04;;;;;;;28.60;15.87;;;;;;;6.08;68.88;101900.53;5062201;28;20382;-78
2023/03/02 05:05:30;;;;;;;28.38;15.43;;;;;;;6.26;68.56;101893.91;5058561;28;20419;-77
2023/03/02 05:07:57;;;;;;;24.38;15.38;;;;;;;6.38;68.05;101901.91;5061284;28;20881;-78
2023/03/02 05:10:26;;;;;;;25.83;15.50;;;;;;;6.42;67.84;101905.97;5060372;28;20466;-77
2023/03/02 05:13:01;;;;;;;26.40;17.65;;;;;;;6.28;67.85;101897.31;5061200;28;20378;-78
2023/03/02 05:15:32;;;;;;;26.23;16.05;;;;;;;6.34;67.53;101903.06;5060620;28;20380;-77
2023/03/02 05:17:58;;;;;;;26.85;14.75;;;;;;;6.32;67.39;101892.66;5058281;28;20387;-78
2023/03/02 05:20:26;;;;;;;25.65;15.77;;;;;;;6.29;67.27;101890.25;5059801;28;20417;-77
2023/03/02 05:22:54;;;;;;;21.95;14.02;;;;;;;6.26;67.28;101901.81;5062241;28;20387;-77
2023/03/02 05:25:20;;;;;;;22.30;13.55;;;;;;;6.34;67.45;101896.00;5062768;28;20476;-77
2023/03/02 05:27:46;;;;;;;23.55;13.90;;;;;;;6.34;67.03;101889.88;5060237;28;20790;-78
2023/03/02 05:30:12;;;;;;;23.20;13.87;;;;;;;6.43;66.68;101899.75;5060846;28;20405;-76
2023/03/02 05:32:37;;;;;;;22.92;13.52;;;;;;;6.41;66.86;101906.91;5062271;28;20396;-78
2023/03/02 05:35:03;;;;;;;23.93;13.73;;;;;;;6.21;66.84;101911.00;5064660;28;20696;-76
2023/03/02 05:37:29;;;;;;;23.38;13.52;;;;;;;6.34;67.10;101903.91;5060547;28;20388;-77
2023/03/02 05:39:54;;;;;;;21.20;12.53;;;;;;;6.21;66.94;101906.59;5063333;28;20787;-77
2023/03/02 05:42:20;;;;;;;24.10;14.13;;;;;;;6.41;66.50;101899.88;5061454;28;20394;-79
2023/03/02 05:44:45;;;;;;;21.83;13.07;;;;;;;6.53;66.19;101916.53;5059684;28;20428;-78
2023/03/02 05:47:11;;;;;;;20.15;12.90;;;;;;;6.29;66.84;101919.22;5059444;28;20415;-79
2023/03/02 05:49:36;;;;;;;21.03;12.80;;;;;;;6.43;66.47;101918.19;5062770;28;20403;-79
2023/03/02 05:52:01;;;;;;;19.00;11.70;;;;;;;6.35;66.23;101912.66;5060089;28;20893;-78
2023/03/02 05:54:27;;;;;;;21.63;13.20;;;;;;;6.33;66.36;101920.66;5061478;28;20379;-77
2023/03/02 05:56:52;;;;;;;23.40;12.97;;;;;;;6.28;66.12;101930.69;5059441;28;20408;-79
2023/03/02 05:59:18;;;;;;;21.90;12.90;;;;;;;6.38;65.86;101930.88;5061299;28;20882;-78
2023/03/02 06:01:43;;;;;;;19.55;12.38;;;;;;;6.32;66.48;101937.44;5064005;28;20412;-78
2023/03/02 06:04:09;;;;;;;20.70;12.97;;;;;;;6.24;66.20;101934.50;5062608;28;20860;-79
2023/03/02 06:06:34;;;;;;;20.70;12.27;;;;;;;6.06;66.76;101940.13;5062281;28;20416;-77
2023/03/02 06:09:00;;;;;;;20.92;12.75;;;;;;;6.28;66.46;101931.53;5061921;28;20576;-78
2023/03/02 06:11:25;;;;;;;20.60;12.45;;;;;;;6.15;66.43;101925.47;5065793;28;20371;-79
2023/03/02 06:13:51;;;;;;;19.43;12.80;;;;;;;6.21;66.58;101938.22;5064440;28;20788;-78
2023/03/02 06:16:16;;;;;;;21.40;13.27;;;;;;;6.25;66.56;101942.28;5063434;28;20712;-78
2023/03/02 06:18:41;;;;;;;20.77;12.30;;;;;;;6.05;66.95;101937.59;5065058;28;20407;-78
2023/03/02 06:21:07;;;;;;;22.37;12.30;;;;;;;6.04;67.31;101949.09;5064023;28;20376;-79
2023/03/02 06:23:32;;;;;;;21.40;12.90;;;;;;;6.20;67.08;101935.69;5065303;28;20528;-79
2023/03/02 06:25:58;;;;;;;19.55;12.27;;;;;;;6.22;66.59;101939.88;5065241;28;20698;-78
2023/03/02 06:28:25;;;;;;;22.95;13.63;;;;;;;6.24;66.73;101939.75;5063627;28;20697;-78
2023/03/02 06:30:51;;;;;;;18.25;12.40;;;;;;;6.20;66.57;101935.69;5068403;28;20548;-77
2023/03/02 06:33:19;;;;;;;21.05;12.70;;;;;;;6.21;66.69;101938.22;5062226;28;20389;-78
2023/03/02 06:35:46;;;;;;;21.75;13.20;;;;;;;6.46;66.48;101942.53;5064785;28;20371;-78
2023/03/02 06:38:12;;;;;;;23.50;13.70;;;;;;;6.47;66.04;101943.34;5063621;28;20381;-77
2023/03/02 06:40:37;;;;;;;21.57;13.43;;;;;;;6.46;65.95;101937.25;5061957;28;20477;-79
2023/03/02 06:43:03;;;;;;;21.60;13.47;;;;;;;6.43;66.14;101934.00;5063597;28;20380;-79
2023/03/02 06:45:28;;;;;;;20.55;13.18;;;;;;;6.28;66.12;101931.53;5063545;28;20868;-78
2023/03/02 06:47:54;;;;;;;20.73;13.35;;;;;;;6.42;66.23;101932.31;5054708;28;20376;-79
2023/03/02 06:50:20;;;;;;;20.00;13.02;;;;;;;6.35;66.46;101937.19;5055120;28;20405;-79
2023/03/02 06:52:46;;;;;;;21.23;13.63;;;;;;;6.60;65.56;101936.22;5053748;28;20409;-76
2023/03/02 06:55:11;;;;;;;22.47;13.53;;;;;;;6.43;65.35;101931.38;5052603;28;20415;-78
2023/03/02 06:57:37;;;;;;;18.98;12.80;;;;;;;6.43;65.62;101940.09;5054275;28;20391;-77
2023/03/02 07:00:08;;;;;;;21.88;13.57;;;;;;;6.52;65.23;101941.22;5053744;28;20919;-77
2023/03/02 07:02:35;;;;;;;20.70;13.30;;;;;;;6.53;65.40;101942.88;5053440;28;20713;-77
2023/03/02 07:05:00;;;;;;;18.50;12.73;;;;;;;6.67;65.15;101939.25;5053640;28;20373;-80
2023/03/02 07:07:26;;;;;;;19.70;12.90;;;;;;;6.49;65.19;101930.91;5053510;28;20470;-78
2023/03/02 07:09:51;;;;;;;17.05;12.35;;;;;;;6.50;65.25;101953.69;5052927;28;20757;-78
2023/03/02 07:12:17;;;;;;;18.63;12.73;;;;;;;6.64;65.20;101947.38;5053471;28;20849;-78
2023/03/02 07:14:42;;;;;;;19.57;13.13;;;;;;;6.66;64.74;101945.44;5053063;28;20409;-77
2023/03/02 07:17:08;;;;;;;20.65;11.88;;;;;;;6.46;65.38;101945.16;5053565;28;20399;-79
2023/03/02 07:19:33;;;;;;;20.50;13.10;;;;;;;6.54;65.28;101951.66;5052895;28;20702;-78
2023/03/02 07:21:59;;;;;;;18.87;13.00;;;;;;;6.44;65.40;101944.41;5051083;28;20795;-77
2023/03/02 07:24:24;;;;;;;21.70;13.13;;;;;;;6.37;65.51;101951.06;5069368;28;20701;-79
2023/03/02 07:26:50;;;;;;;20.10;12.70;;;;;;;6.40;65.40;101939.50;5073215;28;20383;-79
2023/03/02 07:29:15;;;;;;;20.40;13.30;;;;;;;6.34;65.82;101947.81;5072684;28;20395;-77
2023/03/02 07:31:43;;;;;;;19.02;12.50;;;;;;;6.25;65.98;101950.19;5058718;28;20392;-78
2023/03/02 07:34:08;;;;;;;19.10;12.57;;;;;;;6.35;65.79;101947.72;5052577;28;20373;-78
2023/03/02 07:36:34;;;;;;;20.47;13.00;;;;;;;6.28;65.88;101944.72;5052118;28;20388;-77
2023/03/02 07:39:03;;;;;;;20.37;13.47;;;;;;;6.36;65.47;101959.94;5052182;28;20846;-79
2023/03/02 07:41:28;;;;;;;18.15;12.15;;;;;;;6.51;65.37;101960.59;5052722;28;20390;-78
2023/03/02 07:43:54;;;;;;;19.80;12.20;;;;;;;6.28;65.34;101957.00;5052418;28;20376;-79
2023/03/02 07:46:20;;;;;;;19.30;11.33;;;;;;;6.29;65.53;101964.81;5054603;28;20566;-79
2023/03/02 07:48:45;;;;;;;20.23;12.77;;;;;;;6.35;65.12;101963.50;5054989;28;20385;-78
2023/03/02 07:51:11;;;;;;;23.47;14.73;;;;;;;6.37;64.99;101964.25;5071463;28;21072;-78
2023/03/02 07:53:37;;;;;;;36.53;19.42;;;;;;;6.38;65.43;101965.09;5073551;28;20379;-77
2023/03/02 07:56:07;;;;;;;33.45;19.15;;;;;;;6.36;65.57;101959.09;5072606;28;20386;-78
2023/03/02 07:58:33;;;;;;;28.00;16.45;;;;;;;6.42;65.10;101966.56;5071858;28;20391;-79
2023/03/02 08:00:59;;;;;;;19.00;12.98;;;;;;;6.38;65.36;101968.56;5072308;28;20375;-78
2023/03/02 08:03:25;;;;;;;19.45;12.55;;;;;;;6.22;65.38;101965.38;5072204;28;20767;-80
2023/03/02 08:05:50;;;;;;;22.75;13.45;;;;;;;6.44;64.91;101976.00;5071970;28;20463;-76
2023/03/02 08:08:16;;;;;;;23.47;14.10;;;;;;;6.53;64.62;101961.34;5071540;28;20734;-77
2023/03/02 08:10:41;;;;;;;24.43;14.07;;;;;;;6.41;64.51;101963.09;5071174;28;20438;-78
2023/03/02 08:13:06;;;;;;;21.13;14.23;;;;;;;6.46;64.80;101957.47;5071145;28;20922;-77
2023/03/02 08:15:32;;;;;;;20.70;13.13;;;;;;;6.29;64.89;101963.97;5071286;28;20798;-77
2023/03/02 08:17:58;;;;;;;22.48;13.52;;;;;;;6.22;65.22;101968.84;5071503;28;20924;-78
2023/03/02 08:20:24;;;;;;;19.47;13.10;;;;;;;6.17;64.94;101978.84;5072246;28;20371;-79
2023/03/02 08:22:50;;;;;;;19.10;12.43;;;;;;;6.03;65.45;101982.50;5072388;28;20828;-77
2023/03/02 08:25:16;;;;;;;21.13;14.68;;;;;;;6.15;64.98;101975.50;5072052;28;20417;-77
2023/03/02 08:27:43;;;;;;;21.33;14.45;;;;;;;6.26;64.61;101970.28;5071859;28;20410;-78
2023/03/02 08:30:09;;;;;;;21.95;14.00;;;;;;;6.30;64.48;101977.03;5071657;28;20428;-81
2023/03/02 08:32:35;;;;;;;22.08;13.88;;;;;;;6.03;64.13;101979.84;5071945;28;20387;-77
2023/03/02 08:35:01;;;;;;;20.25;13.52;;;;;;;6.02;64.29;101985.22;5071638;28;20378;-78
2023/03/02 08:37:27;;;;;;;20.73;13.55;;;;;;;5.94;64.50;101991.84;5068702;28;20383;-78
2023/03/02 08:39:53;;;;;;;19.60;13.05;;;;;;;5.75;63.82;101987.00;5061707;28;20371;-77
2023/03/02 08:42:18;;;;;;;21.17;14.63;;;;;;;5.84;64.28;101992.59;5058975;28;20396;-78
2023/03/02 08:44:44;;;;;;;21.00;14.40;;;;;;;5.86;64.29;101991.53;5086715;28;21032;-77
2023/03/02 08:47:09;;;;;;;22.80;14.52;;;;;;;5.74;64.89;101990.63;5061977;28;20409;-79
2023/03/02 08:49:36;;;;;;;22.10;14.50;;;;;;;5.71;64.61;101984.72;5063179;28;20415;-78
2023/03/02 08:52:03;;;;;;;22.33;14.00;;;;;;;5.98;63.87;101987.22;5059848;28;20377;-78
2023/03/02 08:54:28;;;;;;;22.55;14.63;;;;;;;6.17;63.72;101983.28;5060108;28;20855;-78
2023/03/02 08:56:54;;;;;;;20.93;14.43;;;;;;;5.90;63.96;101989.53;5056585;28;20377;-77
2023/03/02 08:59:20;;;;;;;21.83;15.07;;;;;;;5.93;63.69;101994.56;5061152;28;20368;-78
2023/03/02 09:01:46;;;;;;;21.83;14.30;;;;;;;5.77;63.60;102010.59;5060175;28;20736;-78
2023/03/02 09:04:12;;;;;;;21.57;14.80;;;;;;;5.75;64.12;101992.28;5063288;28;20384;-79
2023/03/02 09:06:40;;;;;;;21.63;15.60;;;;;;;5.83;64.06;101988.25;5062691;28;20483;-77
2023/03/02 09:09:06;;;;;;;22.67;15.55;;;;;;;5.85;63.68;101992.50;5060619;28;20408;-78
2023/03/02 09:11:32;;;;;;;24.45;15.75;;;;;;;5.94;64.13;101983.09;5059497;28;20373;-77
2023/03/02 09:13:57;;;;;;;25.35;16.70;;;;;;;6.18;63.57;101998.13;5065561;28;20723;-79
2023/03/02 09:16:24;;;;;;;26.33;17.97;;;;;;;6.16;63.98;101987.72;5071354;28;20379;-78
2023/03/02 09:18:50;;;;;;;23.98;15.32;;;;;;;5.97;64.68;101992.59;5071650;28;20371;-78
2023/03/02 09:21:16;;;;;;;24.07;15.87;;;;;;;5.97;64.77;101990.81;5071684;28;20748;-79
2023/03/02 09:23:41;;;;;;;26.23;17.23;;;;;;;6.23;64.33;101986.31;5071728;28;20367;-77
2023/03/02 09:26:07;;;;;;;23.88;16.95;;;;;;;6.07;64.64;101981.31;5070430;28;20371;-78
2023/03/02 09:28:34;;;;;;;25.85;16.90;;;;;;;6.10;65.12;101982.88;5060290;28;20392;-79
2023/03/02 09:31:02;;;;;;;24.60;17.88;;;;;;;6.32;64.49;101977.75;5052342;28;20402;-78
2023/03/02 09:33:29;;;;;;;28.92;17.27;;;;;;;6.23;64.47;101978.44;5064097;28;20387;-79
2023/03/02 09:35:54;;;;;;;28.73;18.83;;;;;;;6.45;64.06;101982.97;5077400;28;20843;-78
2023/03/02 09:38:20;;;;;;;27.53;17.13;;;;;;;6.30;63.96;101977.03;5075460;28;20468;-78
2023/03/02 09:40:50;;;;;;;25.67;17.65;;;;;;;6.52;64.80;101978.09;5076444;28;20379;-78
2023/03/02 09:43:28;;;;;;;29.30;18.45;;;;;;;6.38;63.82;101975.63;5076272;28;20418;-77
2023/03/02 09:45:56;;;;;;;24.98;17.60;;;;;;;6.65;62.91;101973.59;5074707;28;20859;-77
2023/03/02 09:48:36;;;;;;;21.92;15.40;;;;;;;6.26;62.82;101991.34;5063391;28;20433;-77
2023/03/02 09:51:27;;;;;;;24.25;17.30;;;;;;;6.05;63.29;101979.72;5075493;28;20524;-78
2023/03/02 09:53:59;;;;;;;27.10;17.67;;;;;;;6.10;62.95;101986.38;5074009;28;20393;-78
2023/03/02 09:56:25;;;;;;;28.10;18.90;;;;;;;6.13;62.98;101985.28;5075051;28;20379;-78
2023/03/02 09:59:03;;;;;;;24.35;17.85;;;;;;;5.99;62.72;101980.16;5076403;28;20743;-79
2023/03/02 10:01:37;;;;;;;25.07;17.60;;;;;;;6.03;62.76;101981.63;5076095;28;20465;-78
2023/03/02 10:04:12;;;;;;;26.23;18.35;;;;;;;6.08;62.60;101982.97;5091382;28;20383;-78
2023/03/02 10:06:37;;;;;;;28.15;18.23;;;;;;;6.22;62.16;101968.84;5075036;28;20378;-78
2023/03/02 10:09:03;;;;;;;23.27;16.97;;;;;;;6.23;61.97;101975.78;5075082;28;20402;-80
2023/03/02 10:12:18;;;;;;;22.30;14.70;;;;;;;5.97;60.80;101968.91;5075426;28;20383;-77
2023/03/02 10:15:06;;;;;;;17.92;13.13;;;;;;;6.03;60.40;101981.63;5027681;28;20464;-80
2023/03/02 10:17:55;;;;;;;20.92;13.52;;;;;;;6.02;60.20;101970.25;5073982;28;20727;-78
2023/03/02 10:20:36;;;;;;;20.33;13.18;;;;;;;6.09;59.97;101979.41;5074255;28;20409;-77
2023/03/02 10:23:27;;;;;;;25.17;14.63;;;;;;;6.13;60.22;101975.59;5074747;28;20711;-77
2023/03/02 10:26:04;;;;;;;23.45;14.50;;;;;;;6.22;59.75;101974.09;5074932;28;20466;-78
2023/03/02 10:28:37;;;;;;;20.63;14.00;;;;;;;6.18;59.15;101974.44;5074687;28;20466;-79
2023/03/02 10:31:09;;;;;;;18.52;12.57;;;;;;;5.90;58.89;101977.19;5074718;28;20387;-78
2023/03/02 10:33:38;;;;;;;19.13;13.13;;;;;;;6.01;59.03;101989.63;5074235;28;20413;-79
2023/03/02 10:36:11;;;;;;;17.75;12.18;;;;;;;5.90;58.49;101986.88;5075061;28;20375;-79
2023/03/02 10:38:37;;;;;;;17.48;11.95;;;;;;;5.93;58.53;101987.50;5074608;28;20387;-77
2023/03/02 10:41:06;;;;;;;18.50;11.93;;;;;;;5.84;58.53;101979.44;5073284;28;20371;-79
2023/03/02 10:43:41;;;;;;;19.77;12.30;;;;;;;5.67;57.92;101988.50;5074467;28;20470;-79
2023/03/02 10:46:09;;;;;;;22.45;12.23;;;;;;;5.81;57.88;101980.47;5073397;28;20415;-78
2023/03/02 10:48:48;;;;;;;20.58;12.65;;;;;;;6.05;57.54;101991.13;5073223;28;20375;-77
2023/03/02 10:51:25;;;;;;;16.35;10.63;;;;;;;5.88;57.22;101975.63;5072286;28;20779;-77
2023/03/02 10:54:17;;;;;;;16.30;10.77;;;;;;;5.86;56.66;101988.06;5089169;28;20797;-77
2023/03/02 10:56:48;;;;;;;16.47;11.10;;;;;;;5.75;56.52;101986.19;5070205;28;20402;-77
2023/03/02 10:59:25;;;;;;;17.70;10.90;;;;;;;5.77;57.16;101988.72;5073571;28;20381;-80
2023/03/02 11:02:14;;;;;;;15.98;10.55;;;;;;;5.86;56.85;101983.63;5073519;28;20371;-78
2023/03/02 11:04:40;;;;;;;18.15;11.93;;;;;;;6.07;56.75;101991.84;5075407;28;20728;-79
2023/03/02 11:07:14;;;;;;;15.77;11.55;;;;;;;6.26;56.54;101986.09;5073393;28;20371;-78
2023/03/02 11:09:39;;;;;;;15.43;11.10;;;;;;;6.19;56.36;101982.22;5061622;28;20399;-78
2023/03/02 11:12:13;;;;;;;17.08;11.45;;;;;;;6.07;55.83;101976.03;5063952;28;20388;-78
2023/03/02 11:14:38;;;;;;;17.67;11.18;;;;;;;6.10;56.08;101982.88;5061188;28;20821;-79
2023/03/02 11:17:33;;;;;;;17.35;10.90;;;;;;;5.82;55.64;101982.16;5078144;28;20898;-78
2023/03/02 11:20:01;;;;;;;15.45;10.43;;;;;;;5.90;54.95;101974.56;5078560;28;20409;-80
2023/03/02 11:22:35;;;;;;;19.85;11.75;;;;;;;6.07;55.02;101975.22;5093494;28;20707;-80